Terminal Aerodrome Forecast
Issued by NWS

Current Version | Previous Version | Text Only | Print | Product List | Glossary Off
Versions: 1 2 3 4 5 6 7 8 9 10 11 12 13 14 15 16 17 18 19 20 21 22

000
FTUS41 KRNK 281134
TAFLWB
TAF
KLWB 281134Z 2812/2912 04004KT P6SM BKN035
     FM281400 06005KT P6SM SCT040
     FM290000 08005KT P6SM FEW250
      TEMPO 2908/2912 4SM BR=

USA.gov is the U.S. government's official web portal to all federal, state and local government web resources and services.